< < Back
Terminal Aerodrome Forecast


Current Version              Previous Versions:   1  2  3  4  5  6  7  8  9  

Terminal Aerodrome Forecast

258
FTUS42 KFFC 221629 AAA
TAFPDK
TAF AMD
KPDK 221629Z 2216/2312 09008KT 4SM -DZ BR OVC006
     FM230000 09011KT 5SM -DZ BR OVC004 PROB30 2308/2312 1SM -RA BR
      OVC004=

Latest METAR

584
SAUS70 KWBC 222100 RRB
MTRPDK
METAR KPDK 222053Z VRB05KT 1 1/2SM BR OVC004 07/06 A2993 RMK AO2 SLP142
T00670061 55013


USA.gov is the U.S. government's official web portal to all federal, state and local government web resources and services.